sensor_id;sensor_type;location;lat;lon;timestamp;pressure;altitude;pressure_sealevel;temperature
56286;BMP180;42191;47.562;9.686;2022-07-01T00:00:15;96942.00;;;20.70
56286;BMP180;42191;47.562;9.686;2022-07-01T00:02:41;96958.00;;;20.70
56286;BMP180;42191;47.562;9.686;2022-07-01T00:05:08;96956.00;;;20.60
56286;BMP180;42191;47.562;9.686;2022-07-01T00:07:34;96955.00;;;20.60
56286;BMP180;42191;47.562;9.686;2022-07-01T00:10:02;96955.00;;;20.60
56286;BMP180;42191;47.562;9.686;2022-07-01T00:12:28;96959.00;;;20.60
56286;BMP180;42191;47.562;9.686;2022-07-01T00:14:54;96956.00;;;20.60
56286;BMP180;42191;47.562;9.686;2022-07-01T00:17:21;96954.00;;;20.60
56286;BMP180;42191;47.562;9.686;2022-07-01T00:19:47;96946.00;;;20.50
56286;BMP180;42191;47.562;9.686;2022-07-01T00:22:14;96940.00;;;20.50
56286;BMP180;42191;47.562;9.686;2022-07-01T00:24:40;96944.00;;;20.50
56286;BMP180;42191;47.562;9.686;2022-07-01T00:27:06;96933.00;;;20.50
56286;BMP180;42191;47.562;9.686;2022-07-01T00:29:32;96920.00;;;20.50
56286;BMP180;42191;47.562;9.686;2022-07-01T00:31:59;96919.00;;;20.50
56286;BMP180;42191;47.562;9.686;2022-07-01T00:34:25;96922.00;;;20.50
56286;BMP180;42191;47.562;9.686;2022-07-01T00:36:52;96929.00;;;20.50
56286;BMP180;42191;47.562;9.686;2022-07-01T00:39:18;96931.00;;;20.50
56286;BMP180;42191;47.562;9.686;2022-07-01T00:41:44;96928.00;;;20.50
56286;BMP180;42191;47.562;9.686;2022-07-01T00:44:19;96912.00;;;20.40
56286;BMP180;42191;47.562;9.686;2022-07-01T00:46:46;96919.00;;;20.40
56286;BMP180;42191;47.562;9.686;2022-07-01T00:49:13;96911.00;;;20.40
56286;BMP180;42191;47.562;9.686;2022-07-01T00:51:39;96920.00;;;20.40
56286;BMP180;42191;47.562;9.686;2022-07-01T00:54:06;96924.00;;;20.40
56286;BMP180;42191;47.562;9.686;2022-07-01T00:56:32;96930.00;;;20.40
56286;BMP180;42191;47.562;9.686;2022-07-01T00:58:58;96932.00;;;20.40
56286;BMP180;42191;47.562;9.686;2022-07-01T01:01:24;96929.00;;;20.40
56286;BMP180;42191;47.562;9.686;2022-07-01T01:03:51;96930.00;;;20.40
56286;BMP180;42191;47.562;9.686;2022-07-01T01:06:17;96925.00;;;20.40
56286;BMP180;42191;47.562;9.686;2022-07-01T01:08:43;96922.00;;;20.30
56286;BMP180;42191;47.562;9.686;2022-07-01T01:11:10;96918.00;;;20.30
56286;BMP180;42191;47.562;9.686;2022-07-01T01:13:36;96922.00;;;20.30
56286;BMP180;42191;47.562;9.686;2022-07-01T01:16:02;96931.00;;;20.30
56286;BMP180;42191;47.562;9.686;2022-07-01T01:18:28;96916.00;;;20.30
56286;BMP180;42191;47.562;9.686;2022-07-01T01:20:54;96917.00;;;20.30
56286;BMP180;42191;47.562;9.686;2022-07-01T01:23:21;96916.00;;;20.30
56286;BMP180;42191;47.562;9.686;2022-07-01T01:25:47;96918.00;;;20.40
56286;BMP180;42191;47.562;9.686;2022-07-01T01:28:14;96916.00;;;20.40
56286;BMP180;42191;47.562;9.686;2022-07-01T01:30:40;96916.00;;;20.40
56286;BMP180;42191;47.562;9.686;2022-07-01T01:33:06;96919.00;;;20.50
56286;BMP180;42191;47.562;9.686;2022-07-01T01:35:37;96915.00;;;20.50
56286;BMP180;42191;47.562;9.686;2022-07-01T01:38:04;96920.00;;;20.50
56286;BMP180;42191;47.562;9.686;2022-07-01T01:40:30;96926.00;;;20.50
56286;BMP180;42191;47.562;9.686;2022-07-01T01:42:56;96921.00;;;20.60
56286;BMP180;42191;47.562;9.686;2022-07-01T01:45:23;96922.00;;;20.60
56286;BMP180;42191;47.562;9.686;2022-07-01T01:47:49;96914.00;;;20.60
56286;BMP180;42191;47.562;9.686;2022-07-01T01:50:15;96900.00;;;20.60
56286;BMP180;42191;47.562;9.686;2022-07-01T01:52:42;96876.00;;;20.60
56286;BMP180;42191;47.562;9.686;2022-07-01T01:55:09;96839.00;;;20.60
56286;BMP180;42191;47.562;9.686;2022-07-01T01:57:36;96815.00;;;20.60
56286;BMP180;42191;47.562;9.686;2022-07-01T02:00:02;96796.00;;;20.60
56286;BMP180;42191;47.562;9.686;2022-07-01T02:02:30;96778.00;;;20.60
56286;BMP180;42191;47.562;9.686;2022-07-01T02:04:56;96757.00;;;20.60
56286;BMP180;42191;47.562;9.686;2022-07-01T02:07:22;96763.00;;;20.50
56286;BMP180;42191;47.562;9.686;2022-07-01T02:09:49;96747.00;;;20.50
56286;BMP180;42191;47.562;9.686;2022-07-01T02:12:15;96733.00;;;20.50
56286;BMP180;42191;47.562;9.686;2022-07-01T02:14:42;96700.00;;;20.50
56286;BMP180;42191;47.562;9.686;2022-07-01T02:17:08;96703.00;;;20.50
56286;BMP180;42191;47.562;9.686;2022-07-01T02:19:34;96705.00;;;20.50
56286;BMP180;42191;47.562;9.686;2022-07-01T02:22:00;96711.00;;;20.40
56286;BMP180;42191;47.562;9.686;2022-07-01T02:24:26;96715.00;;;20.40
56286;BMP180;42191;47.562;9.686;2022-07-01T02:26:52;96740.00;;;20.40
56286;BMP180;42191;47.562;9.686;2022-07-01T02:29:18;96762.00;;;20.40
56286;BMP180;42191;47.562;9.686;2022-07-01T02:31:44;96769.00;;;20.30
56286;BMP180;42191;47.562;9.686;2022-07-01T02:34:11;96797.00;;;20.30
56286;BMP180;42191;47.562;9.686;2022-07-01T02:36:37;96796.00;;;20.30
56286;BMP180;42191;47.562;9.686;2022-07-01T02:39:03;96806.00;;;20.30
56286;BMP180;42191;47.562;9.686;2022-07-01T02:41:29;96811.00;;;20.20
56286;BMP180;42191;47.562;9.686;2022-07-01T02:43:55;96823.00;;;20.20
56286;BMP180;42191;47.562;9.686;2022-07-01T02:46:21;96807.00;;;20.10
56286;BMP180;42191;47.562;9.686;2022-07-01T02:48:47;96823.00;;;20.10
56286;BMP180;42191;47.562;9.686;2022-07-01T02:51:14;96809.00;;;20.10
56286;BMP180;42191;47.562;9.686;2022-07-01T02:53:40;96803.00;;;20.00
56286;BMP180;42191;47.562;9.686;2022-07-01T02:56:06;96816.00;;;20.00
56286;BMP180;42191;47.562;9.686;2022-07-01T02:58:32;96831.00;;;20.00
56286;BMP180;42191;47.562;9.686;2022-07-01T03:00:58;96831.00;;;19.90
56286;BMP180;42191;47.562;9.686;2022-07-01T03:03:24;96840.00;;;19.90
56286;BMP180;42191;47.562;9.686;2022-07-01T03:05:50;96840.00;;;19.90
56286;BMP180;42191;47.562;9.686;2022-07-01T03:08:16;96837.00;;;19.80
56286;BMP180;42191;47.562;9.686;2022-07-01T03:10:42;96836.00;;;19.80
56286;BMP180;42191;47.562;9.686;2022-07-01T03:13:08;96846.00;;;19.80
56286;BMP180;42191;47.562;9.686;2022-07-01T03:15:34;96849.00;;;19.80
56286;BMP180;42191;47.562;9.686;2022-07-01T03:18:01;96849.00;;;19.80
56286;BMP180;42191;47.562;9.686;2022-07-01T03:20:27;96833.00;;;19.70
56286;BMP180;42191;47.562;9.686;2022-07-01T03:22:53;96837.00;;;19.70
56286;BMP180;42191;47.562;9.686;2022-07-01T03:25:19;96848.00;;;19.70
56286;BMP180;42191;47.562;9.686;2022-07-01T03:27:45;96855.00;;;19.70
56286;BMP180;42191;47.562;9.686;2022-07-01T03:30:14;96868.00;;;19.80
56286;BMP180;42191;47.562;9.686;2022-07-01T03:32:40;96870.00;;;19.70
56286;BMP180;42191;47.562;9.686;2022-07-01T03:35:07;96878.00;;;19.80
56286;BMP180;42191;47.562;9.686;2022-07-01T03:37:52;96894.00;;;19.80
56286;BMP180;42191;47.562;9.686;2022-07-01T03:40:18;96891.00;;;19.70
56286;BMP180;42191;47.562;9.686;2022-07-01T03:42:44;96896.00;;;19.70
56286;BMP180;42191;47.562;9.686;2022-07-01T03:45:10;96902.00;;;19.70
56286;BMP180;42191;47.562;9.686;2022-07-01T03:47:36;96909.00;;;19.70
56286;BMP180;42191;47.562;9.686;2022-07-01T03:50:03;96930.00;;;19.60
56286;BMP180;42191;47.562;9.686;2022-07-01T03:52:29;96941.00;;;19.60
56286;BMP180;42191;47.562;9.686;2022-07-01T03:54:55;96936.00;;;19.50
56286;BMP180;42191;47.562;9.686;2022-07-01T03:57:22;96923.00;;;19.40
56286;BMP180;42191;47.562;9.686;2022-07-01T03:59:48;96940.00;;;19.40
56286;BMP180;42191;47.562;9.686;2022-07-01T04:02:14;96943.00;;;19.30
56286;BMP180;42191;47.562;9.686;2022-07-01T04:04:40;96942.00;;;19.20
56286;BMP180;42191;47.562;9.686;2022-07-01T04:07:06;96954.00;;;19.10
56286;BMP180;42191;47.562;9.686;2022-07-01T04:09:34;96967.00;;;19.10
56286;BMP180;42191;47.562;9.686;2022-07-01T04:12:00;96953.00;;;19.00
56286;BMP180;42191;47.562;9.686;2022-07-01T04:14:26;96953.00;;;19.00
56286;BMP180;42191;47.562;9.686;2022-07-01T04:16:52;96965.00;;;19.00
56286;BMP180;42191;47.562;9.686;2022-07-01T04:19:20;96973.00;;;18.90
56286;BMP180;42191;47.562;9.686;2022-07-01T04:21:46;97002.00;;;18.90
56286;BMP180;42191;47.562;9.686;2022-07-01T04:24:31;97020.00;;;18.80
56286;BMP180;42191;47.562;9.686;2022-07-01T04:27:00;97010.00;;;18.70
56286;BMP180;42191;47.562;9.686;2022-07-01T04:29:27;97015.00;;;18.60
56286;BMP180;42191;47.562;9.686;2022-07-01T04:31:55;97016.00;;;18.70
56286;BMP180;42191;47.562;9.686;2022-07-01T04:34:22;97036.00;;;18.60
56286;BMP180;42191;47.562;9.686;2022-07-01T04:36:48;97042.00;;;18.60
56286;BMP180;42191;47.562;9.686;2022-07-01T04:39:14;97037.00;;;18.50
56286;BMP180;42191;47.562;9.686;2022-07-01T04:41:40;97014.00;;;18.40
56286;BMP180;42191;47.562;9.686;2022-07-01T04:44:26;96999.00;;;18.40
56286;BMP180;42191;47.562;9.686;2022-07-01T04:46:52;97051.00;;;18.30
56286;BMP180;42191;47.562;9.686;2022-07-01T04:49:18;97071.00;;;18.20
56286;BMP180;42191;47.562;9.686;2022-07-01T04:51:44;97061.00;;;18.20
56286;BMP180;42191;47.562;9.686;2022-07-01T04:54:10;97054.00;;;18.10
56286;BMP180;42191;47.562;9.686;2022-07-01T04:56:38;97060.00;;;18.00
56286;BMP180;42191;47.562;9.686;2022-07-01T04:59:04;97075.00;;;18.00
56286;BMP180;42191;47.562;9.686;2022-07-01T05:01:31;97063.00;;;17.90
56286;BMP180;42191;47.562;9.686;2022-07-01T05:04:01;97070.00;;;17.90
56286;BMP180;42191;47.562;9.686;2022-07-01T05:06:27;97104.00;;;17.90
56286;BMP180;42191;47.562;9.686;2022-07-01T05:08:53;97101.00;;;17.90
56286;BMP180;42191;47.562;9.686;2022-07-01T05:11:20;97105.00;;;17.90
56286;BMP180;42191;47.562;9.686;2022-07-01T05:13:46;97111.00;;;18.00
56286;BMP180;42191;47.562;9.686;2022-07-01T05:16:12;97094.00;;;17.90
56286;BMP180;42191;47.562;9.686;2022-07-01T05:18:38;97105.00;;;17.90
56286;BMP180;42191;47.562;9.686;2022-07-01T05:21:43;97107.00;;;17.90
56286;BMP180;42191;47.562;9.686;2022-07-01T05:24:32;97105.00;;;17.90
56286;BMP180;42191;47.562;9.686;2022-07-01T05:26:59;97109.00;;;17.90
56286;BMP180;42191;47.562;9.686;2022-07-01T05:29:26;97112.00;;;17.90
56286;BMP180;42191;47.562;9.686;2022-07-01T05:31:53;97111.00;;;17.90
56286;BMP180;42191;47.562;9.686;2022-07-01T05:34:19;97115.00;;;17.80
56286;BMP180;42191;47.562;9.686;2022-07-01T05:36:45;97116.00;;;17.80
56286;BMP180;42191;47.562;9.686;2022-07-01T05:39:11;97119.00;;;17.80
56286;BMP180;42191;47.562;9.686;2022-07-01T05:41:38;97130.00;;;17.80
56286;BMP180;42191;47.562;9.686;2022-07-01T05:44:04;97135.00;;;17.80
56286;BMP180;42191;47.562;9.686;2022-07-01T05:46:30;97135.00;;;17.80
56286;BMP180;42191;47.562;9.686;2022-07-01T05:48:56;97135.00;;;17.80
56286;BMP180;42191;47.562;9.686;2022-07-01T05:51:22;97134.00;;;17.80
56286;BMP180;42191;47.562;9.686;2022-07-01T05:53:49;97131.00;;;17.80
56286;BMP180;42191;47.562;9.686;2022-07-01T05:56:15;97134.00;;;17.80
56286;BMP180;42191;47.562;9.686;2022-07-01T05:58:41;97143.00;;;17.80
56286;BMP180;42191;47.562;9.686;2022-07-01T06:01:07;97144.00;;;17.80
56286;BMP180;42191;47.562;9.686;2022-07-01T06:03:33;97135.00;;;17.80
56286;BMP180;42191;47.562;9.686;2022-07-01T06:05:59;97128.00;;;17.80
56286;BMP180;42191;47.562;9.686;2022-07-01T06:08:26;97132.00;;;17.80
56286;BMP180;42191;47.562;9.686;2022-07-01T06:10:52;97148.00;;;17.80
56286;BMP180;42191;47.562;9.686;2022-07-01T06:13:18;97139.00;;;17.80
56286;BMP180;42191;47.562;9.686;2022-07-01T06:15:44;97147.00;;;17.80
56286;BMP180;42191;47.562;9.686;2022-07-01T06:18:10;97136.00;;;17.80
56286;BMP180;42191;47.562;9.686;2022-07-01T06:20:36;97148.00;;;17.80
56286;BMP180;42191;47.562;9.686;2022-07-01T06:23:02;97155.00;;;17.90
56286;BMP180;42191;47.562;9.686;2022-07-01T06:25:28;97153.00;;;17.90
56286;BMP180;42191;47.562;9.686;2022-07-01T06:27:54;97159.00;;;17.90
56286;BMP180;42191;47.562;9.686;2022-07-01T06:30:20;97173.00;;;17.90
56286;BMP180;42191;47.562;9.686;2022-07-01T06:32:46;97171.00;;;17.90
56286;BMP180;42191;47.562;9.686;2022-07-01T06:35:12;97171.00;;;17.90
56286;BMP180;42191;47.562;9.686;2022-07-01T06:37:39;97174.00;;;17.90
56286;BMP180;42191;47.562;9.686;2022-07-01T06:40:06;97176.00;;;17.90
56286;BMP180;42191;47.562;9.686;2022-07-01T06:42:33;97179.00;;;17.90
56286;BMP180;42191;47.562;9.686;2022-07-01T06:44:59;97175.00;;;18.00
56286;BMP180;42191;47.562;9.686;2022-07-01T06:47:25;97174.00;;;18.00
56286;BMP180;42191;47.562;9.686;2022-07-01T06:49:51;97181.00;;;18.00
56286;BMP180;42191;47.562;9.686;2022-07-01T06:52:17;97167.00;;;18.00
56286;BMP180;42191;47.562;9.686;2022-07-01T06:54:43;97158.00;;;18.00
56286;BMP180;42191;47.562;9.686;2022-07-01T06:57:10;97156.00;;;18.10
56286;BMP180;42191;47.562;9.686;2022-07-01T06:59:36;97173.00;;;18.10
56286;BMP180;42191;47.562;9.686;2022-07-01T07:02:02;97191.00;;;18.10
56286;BMP180;42191;47.562;9.686;2022-07-01T07:04:28;97195.00;;;18.10
56286;BMP180;42191;47.562;9.686;2022-07-01T07:06:54;97186.00;;;18.10
56286;BMP180;42191;47.562;9.686;2022-07-01T07:09:20;97187.00;;;18.10
56286;BMP180;42191;47.562;9.686;2022-07-01T07:11:46;97195.00;;;18.20
56286;BMP180;42191;47.562;9.686;2022-07-01T07:14:12;97201.00;;;18.20
56286;BMP180;42191;47.562;9.686;2022-07-01T07:16:39;97200.00;;;18.20
56286;BMP180;42191;47.562;9.686;2022-07-01T07:19:05;97202.00;;;18.20
56286;BMP180;42191;47.562;9.686;2022-07-01T07:21:31;97183.00;;;18.20
56286;BMP180;42191;47.562;9.686;2022-07-01T07:23:57;97185.00;;;18.20
56286;BMP180;42191;47.562;9.686;2022-07-01T07:26:23;97194.00;;;18.30
56286;BMP180;42191;47.562;9.686;2022-07-01T07:28:51;97193.00;;;18.40
56286;BMP180;42191;47.562;9.686;2022-07-01T07:31:17;97186.00;;;18.50
56286;BMP180;42191;47.562;9.686;2022-07-01T07:33:43;97185.00;;;18.60
56286;BMP180;42191;47.562;9.686;2022-07-01T07:36:09;97187.00;;;18.70
56286;BMP180;42191;47.562;9.686;2022-07-01T07:38:37;97188.00;;;18.80
56286;BMP180;42191;47.562;9.686;2022-07-01T07:41:04;97190.00;;;18.90
56286;BMP180;42191;47.562;9.686;2022-07-01T07:43:30;97183.00;;;19.00
56286;BMP180;42191;47.562;9.686;2022-07-01T07:45:57;97188.00;;;19.10
56286;BMP180;42191;47.562;9.686;2022-07-01T07:48:23;97182.00;;;19.10
56286;BMP180;42191;47.562;9.686;2022-07-01T07:50:49;97176.00;;;19.20
56286;BMP180;42191;47.562;9.686;2022-07-01T07:53:15;97183.00;;;19.30
56286;BMP180;42191;47.562;9.686;2022-07-01T07:55:41;97183.00;;;19.30
56286;BMP180;42191;47.562;9.686;2022-07-01T07:58:07;97196.00;;;19.30
56286;BMP180;42191;47.562;9.686;2022-07-01T08:00:33;97197.00;;;19.40
56286;BMP180;42191;47.562;9.686;2022-07-01T08:03:00;97202.00;;;19.40
56286;BMP180;42191;47.562;9.686;2022-07-01T08:05:26;97195.00;;;19.50
56286;BMP180;42191;47.562;9.686;2022-07-01T08:07:52;97194.00;;;19.50
56286;BMP180;42191;47.562;9.686;2022-07-01T08:10:18;97215.00;;;19.50
56286;BMP180;42191;47.562;9.686;2022-07-01T08:12:44;97212.00;;;19.40
56286;BMP180;42191;47.562;9.686;2022-07-01T08:15:10;97213.00;;;19.40
56286;BMP180;42191;47.562;9.686;2022-07-01T08:17:37;97217.00;;;19.50
56286;BMP180;42191;47.562;9.686;2022-07-01T08:20:03;97222.00;;;19.50
56286;BMP180;42191;47.562;9.686;2022-07-01T08:22:30;97206.00;;;19.50
56286;BMP180;42191;47.562;9.686;2022-07-01T08:24:56;97195.00;;;19.60
56286;BMP180;42191;47.562;9.686;2022-07-01T08:27:22;97175.00;;;19.60
56286;BMP180;42191;47.562;9.686;2022-07-01T08:29:48;97172.00;;;19.70
56286;BMP180;42191;47.562;9.686;2022-07-01T08:32:14;97163.00;;;19.80
56286;BMP180;42191;47.562;9.686;2022-07-01T08:34:40;97166.00;;;19.90
56286;BMP180;42191;47.562;9.686;2022-07-01T08:37:06;97193.00;;;20.10
56286;BMP180;42191;47.562;9.686;2022-07-01T08:39:32;97186.00;;;20.20
56286;BMP180;42191;47.562;9.686;2022-07-01T08:41:59;97175.00;;;20.20
56286;BMP180;42191;47.562;9.686;2022-07-01T08:44:25;97164.00;;;20.30
56286;BMP180;42191;47.562;9.686;2022-07-01T08:46:52;97167.00;;;20.40
56286;BMP180;42191;47.562;9.686;2022-07-01T08:49:18;97179.00;;;20.50
56286;BMP180;42191;47.562;9.686;2022-07-01T08:51:44;97164.00;;;20.50
56286;BMP180;42191;47.562;9.686;2022-07-01T08:54:10;97168.00;;;20.60
56286;BMP180;42191;47.562;9.686;2022-07-01T08:56:37;97169.00;;;20.60
56286;BMP180;42191;47.562;9.686;2022-07-01T08:59:13;97167.00;;;20.60
56286;BMP180;42191;47.562;9.686;2022-07-01T09:01:40;97181.00;;;20.60
56286;BMP180;42191;47.562;9.686;2022-07-01T09:04:16;97197.00;;;20.60
56286;BMP180;42191;47.562;9.686;2022-07-01T09:06:42;97193.00;;;20.60
56286;BMP180;42191;47.562;9.686;2022-07-01T09:09:15;97183.00;;;20.50
56286;BMP180;42191;47.562;9.686;2022-07-01T09:11:47;97190.00;;;20.50
56286;BMP180;42191;47.562;9.686;2022-07-01T09:16:54;97179.00;;;20.50
56286;BMP180;42191;47.562;9.686;2022-07-01T09:19:25;97186.00;;;20.50
56286;BMP180;42191;47.562;9.686;2022-07-01T09:21:55;97183.00;;;20.60
56286;BMP180;42191;47.562;9.686;2022-07-01T09:24:33;97193.00;;;20.60
56286;BMP180;42191;47.562;9.686;2022-07-01T09:27:03;97183.00;;;20.60
56286;BMP180;42191;47.562;9.686;2022-07-01T09:29:36;97186.00;;;20.60
56286;BMP180;42191;47.562;9.686;2022-07-01T09:32:05;97180.00;;;20.60
56286;BMP180;42191;47.562;9.686;2022-07-01T09:34:39;97183.00;;;20.70
56286;BMP180;42191;47.562;9.686;2022-07-01T09:37:06;97192.00;;;20.70
56286;BMP180;42191;47.562;9.686;2022-07-01T09:39:49;97186.00;;;20.70
56286;BMP180;42191;47.562;9.686;2022-07-01T09:42:17;97200.00;;;20.70
56286;BMP180;42191;47.562;9.686;2022-07-01T09:45:00;97203.00;;;20.70
56286;BMP180;42191;47.562;9.686;2022-07-01T09:47:34;97192.00;;;20.70
56286;BMP180;42191;47.562;9.686;2022-07-01T09:50:02;97196.00;;;20.70
56286;BMP180;42191;47.562;9.686;2022-07-01T09:52:29;97197.00;;;20.80
56286;BMP180;42191;47.562;9.686;2022-07-01T09:54:55;97204.00;;;20.80
56286;BMP180;42191;47.562;9.686;2022-07-01T09:57:22;97211.00;;;20.80
56286;BMP180;42191;47.562;9.686;2022-07-01T09:59:50;97199.00;;;20.90
56286;BMP180;42191;47.562;9.686;2022-07-01T10:02:19;97199.00;;;20.80
56286;BMP180;42191;47.562;9.686;2022-07-01T10:05:05;97208.00;;;20.90
56286;BMP180;42191;47.562;9.686;2022-07-01T10:07:43;97215.00;;;20.90
56286;BMP180;42191;47.562;9.686;2022-07-01T10:10:41;97223.00;;;20.90
56286;BMP180;42191;47.562;9.686;2022-07-01T10:13:13;97220.00;;;20.80
56286;BMP180;42191;47.562;9.686;2022-07-01T10:15:42;97226.00;;;20.90
56286;BMP180;42191;47.562;9.686;2022-07-01T10:18:24;97224.00;;;20.90
56286;BMP180;42191;47.562;9.686;2022-07-01T10:20:51;97230.00;;;20.90
56286;BMP180;42191;47.562;9.686;2022-07-01T10:23:24;97235.00;;;20.80
56286;BMP180;42191;47.562;9.686;2022-07-01T10:25:51;97238.00;;;20.80
56286;BMP180;42191;47.562;9.686;2022-07-01T10:31:09;97262.00;;;20.70
56286;BMP180;42191;47.562;9.686;2022-07-01T10:41:37;97271.00;;;20.30
56286;BMP180;42191;47.562;9.686;2022-07-01T10:44:06;97297.00;;;20.20
56286;BMP180;42191;47.562;9.686;2022-07-01T10:52:12;97288.00;;;19.90
56286;BMP180;42191;47.562;9.686;2022-07-01T10:57:20;97293.00;;;19.70
56286;BMP180;42191;47.562;9.686;2022-07-01T11:02:25;97301.00;;;19.50
56286;BMP180;42191;47.562;9.686;2022-07-01T11:04:53;97309.00;;;19.40
56286;BMP180;42191;47.562;9.686;2022-07-01T11:07:23;97311.00;;;19.30
56286;BMP180;42191;47.562;9.686;2022-07-01T11:09:49;97322.00;;;19.10
56286;BMP180;42191;47.562;9.686;2022-07-01T11:12:16;97325.00;;;19.10
56286;BMP180;42191;47.562;9.686;2022-07-01T11:14:45;97333.00;;;19.00
56286;BMP180;42191;47.562;9.686;2022-07-01T11:17:11;97334.00;;;19.00
56286;BMP180;42191;47.562;9.686;2022-07-01T11:19:37;97333.00;;;19.00
56286;BMP180;42191;47.562;9.686;2022-07-01T11:22:04;97315.00;;;19.00
56286;BMP180;42191;47.562;9.686;2022-07-01T11:24:31;97304.00;;;19.00
56286;BMP180;42191;47.562;9.686;2022-07-01T11:27:06;97284.00;;;19.00
56286;BMP180;42191;47.562;9.686;2022-07-01T11:29:33;97272.00;;;19.00
56286;BMP180;42191;47.562;9.686;2022-07-01T11:31:59;97271.00;;;19.00
56286;BMP180;42191;47.562;9.686;2022-07-01T11:34:28;97275.00;;;19.00
56286;BMP180;42191;47.562;9.686;2022-07-01T11:36:55;97257.00;;;18.90
56286;BMP180;42191;47.562;9.686;2022-07-01T11:39:41;97254.00;;;19.00
56286;BMP180;42191;47.562;9.686;2022-07-01T11:42:10;97244.00;;;19.00
56286;BMP180;42191;47.562;9.686;2022-07-01T11:44:43;97254.00;;;19.00
56286;BMP180;42191;47.562;9.686;2022-07-01T11:47:23;97243.00;;;19.10
56286;BMP180;42191;47.562;9.686;2022-07-01T11:49:50;97244.00;;;19.20
56286;BMP180;42191;47.562;9.686;2022-07-01T11:52:20;97274.00;;;19.30
56286;BMP180;42191;47.562;9.686;2022-07-01T11:54:48;97288.00;;;19.40
56286;BMP180;42191;47.562;9.686;2022-07-01T11:57:16;97299.00;;;19.50
56286;BMP180;42191;47.562;9.686;2022-07-01T11:59:43;97309.00;;;19.60
56286;BMP180;42191;47.562;9.686;2022-07-01T12:02:12;97316.00;;;19.60
56286;BMP180;42191;47.562;9.686;2022-07-01T12:04:40;97328.00;;;19.60
56286;BMP180;42191;47.562;9.686;2022-07-01T12:07:07;97320.00;;;19.60
56286;BMP180;42191;47.562;9.686;2022-07-01T12:09:35;97303.00;;;19.70
56286;BMP180;42191;47.562;9.686;2022-07-01T12:12:01;97302.00;;;19.90
56286;BMP180;42191;47.562;9.686;2022-07-01T12:14:32;97297.00;;;20.20
56286;BMP180;42191;47.562;9.686;2022-07-01T12:17:01;97312.00;;;20.50
56286;BMP180;42191;47.562;9.686;2022-07-01T12:19:29;97305.00;;;20.80
56286;BMP180;42191;47.562;9.686;2022-07-01T12:21:57;97298.00;;;21.10
56286;BMP180;42191;47.562;9.686;2022-07-01T12:24:24;97300.00;;;21.40
56286;BMP180;42191;47.562;9.686;2022-07-01T12:29:21;97297.00;;;21.70
56286;BMP180;42191;47.562;9.686;2022-07-01T12:31:56;97309.00;;;21.80
56286;BMP180;42191;47.562;9.686;2022-07-01T12:34:23;97311.00;;;21.90
56286;BMP180;42191;47.562;9.686;2022-07-01T12:36:50;97315.00;;;22.00
56286;BMP180;42191;47.562;9.686;2022-07-01T12:39:17;97319.00;;;22.00
56286;BMP180;42191;47.562;9.686;2022-07-01T12:41:50;97326.00;;;22.10
56286;BMP180;42191;47.562;9.686;2022-07-01T12:44:24;97325.00;;;22.10
56286;BMP180;42191;47.562;9.686;2022-07-01T12:46:50;97324.00;;;22.30
56286;BMP180;42191;47.562;9.686;2022-07-01T12:49:24;97321.00;;;22.40
56286;BMP180;42191;47.562;9.686;2022-07-01T12:51:52;97316.00;;;22.60
56286;BMP180;42191;47.562;9.686;2022-07-01T12:54:48;97305.00;;;22.80
56286;BMP180;42191;47.562;9.686;2022-07-01T12:57:15;97299.00;;;22.90
56286;BMP180;42191;47.562;9.686;2022-07-01T12:59:41;97307.00;;;23.00
56286;BMP180;42191;47.562;9.686;2022-07-01T13:02:07;97306.00;;;23.00
56286;BMP180;42191;47.562;9.686;2022-07-01T13:04:33;97313.00;;;23.20
56286;BMP180;42191;47.562;9.686;2022-07-01T13:06:59;97317.00;;;23.40
56286;BMP180;42191;47.562;9.686;2022-07-01T13:09:25;97313.00;;;23.70
56286;BMP180;42191;47.562;9.686;2022-07-01T13:11:51;97331.00;;;24.10
56286;BMP180;42191;47.562;9.686;2022-07-01T13:14:18;97344.00;;;24.30
56286;BMP180;42191;47.562;9.686;2022-07-01T13:16:44;97345.00;;;24.40
56286;BMP180;42191;47.562;9.686;2022-07-01T13:19:10;97343.00;;;24.60
56286;BMP180;42191;47.562;9.686;2022-07-01T13:21:36;97352.00;;;24.80
56286;BMP180;42191;47.562;9.686;2022-07-01T13:24:02;97348.00;;;25.10
56286;BMP180;42191;47.562;9.686;2022-07-01T13:26:28;97355.00;;;25.20
56286;BMP180;42191;47.562;9.686;2022-07-01T13:28:55;97345.00;;;25.30
56286;BMP180;42191;47.562;9.686;2022-07-01T13:31:21;97350.00;;;25.40
56286;BMP180;42191;47.562;9.686;2022-07-01T13:33:47;97358.00;;;25.50
56286;BMP180;42191;47.562;9.686;2022-07-01T13:36:13;97357.00;;;25.50
56286;BMP180;42191;47.562;9.686;2022-07-01T13:38:41;97344.00;;;25.50
56286;BMP180;42191;47.562;9.686;2022-07-01T13:41:07;97351.00;;;25.70
56286;BMP180;42191;47.562;9.686;2022-07-01T13:43:33;97360.00;;;25.90
56286;BMP180;42191;47.562;9.686;2022-07-01T13:45:59;97353.00;;;26.10
56286;BMP180;42191;47.562;9.686;2022-07-01T13:48:25;97349.00;;;26.30
56286;BMP180;42191;47.562;9.686;2022-07-01T13:50:52;97348.00;;;26.50
56286;BMP180;42191;47.562;9.686;2022-07-01T13:53:18;97347.00;;;26.70
56286;BMP180;42191;47.562;9.686;2022-07-01T13:55:44;97338.00;;;27.10
56286;BMP180;42191;47.562;9.686;2022-07-01T13:58:10;97336.00;;;27.60
56286;BMP180;42191;47.562;9.686;2022-07-01T14:00:36;97348.00;;;28.10
56286;BMP180;42191;47.562;9.686;2022-07-01T14:03:02;97346.00;;;28.50
56286;BMP180;42191;47.562;9.686;2022-07-01T14:05:29;97349.00;;;28.90
56286;BMP180;42191;47.562;9.686;2022-07-01T14:07:55;97346.00;;;29.10
56286;BMP180;42191;47.562;9.686;2022-07-01T14:10:21;97351.00;;;29.30
56286;BMP180;42191;47.562;9.686;2022-07-01T14:12:47;97352.00;;;29.40
56286;BMP180;42191;47.562;9.686;2022-07-01T14:15:13;97353.00;;;29.40
56286;BMP180;42191;47.562;9.686;2022-07-01T14:17:39;97354.00;;;29.50
56286;BMP180;42191;47.562;9.686;2022-07-01T14:20:06;97353.00;;;29.50
56286;BMP180;42191;47.562;9.686;2022-07-01T14:22:32;97352.00;;;29.70
56286;BMP180;42191;47.562;9.686;2022-07-01T14:24:58;97353.00;;;29.80
56286;BMP180;42191;47.562;9.686;2022-07-01T14:27:25;97347.00;;;29.90
56286;BMP180;42191;47.562;9.686;2022-07-01T14:29:51;97352.00;;;30.00
56286;BMP180;42191;47.562;9.686;2022-07-01T14:32:17;97350.00;;;30.10
56286;BMP180;42191;47.562;9.686;2022-07-01T14:34:43;97358.00;;;30.10
56286;BMP180;42191;47.562;9.686;2022-07-01T14:37:09;97353.00;;;30.10